Time;durP1;ratioP1;P1;durP2;ratioP2;P2;SDS_P1;SDS_P2;PMS_P1;PMS_P2;Temp;Humidity;BMP_temperature;BMP_pressure;BME280_temperature;BME280_humidity;BME280_pressure;Samples;Min_cycle;Max_cycle;Signal;HPM_P1;HPM_P2
2022/01/25 00:09:21;;;;;;;;;32.50;29.50;;;;;21.50;40.15;102355.06;5067409;28;45778;-76
2022/01/25 00:26:00;;;;;;;;;36.00;32.75;;;;;21.49;40.29;102359.50;5067776;28;45340;-76
2022/01/25 00:28:41;;;;;;;;;36.00;30.00;;;;;21.49;40.42;102367.47;5066039;28;45403;-76
2022/01/25 00:31:18;;;;;;;;;35.75;31.25;;;;;21.50;40.15;102368.34;5069355;27;47200;-76
2022/01/25 00:33:48;;;;;;;;;34.75;30.75;;;;;21.48;40.16;102357.75;5043448;27;46003;-78
2022/01/25 00:36:16;;;;;;;;;34.75;31.75;;;;;21.50;40.13;102368.34;5065838;27;45351;-76
2022/01/25 00:38:41;;;;;;;;;29.50;26.50;;;;;21.51;40.45;102367.44;5065171;27;45280;-77
2022/01/25 00:41:07;;;;;;;;;35.75;31.25;;;;;21.49;40.26;102364.81;5062271;28;48529;-76
2022/01/25 00:43:32;;;;;;;;;34.00;31.25;;;;;21.50;40.15;102368.34;5081860;28;46420;-76
2022/01/25 00:46:01;;;;;;;;;40.25;33.00;;;;;21.49;40.55;102366.59;5081776;28;45580;-76
2022/01/25 00:48:43;;;;;;;;;45.50;34.25;;;;;21.50;40.13;102374.53;5045882;28;45475;-76
2022/01/25 00:54:02;;;;;;;;;42.25;34.50;;;;;21.48;40.33;102365.72;5053695;28;45377;-76
2022/01/25 00:56:35;;;;;;;;;40.00;32.00;;;;;21.48;40.05;102371.03;5041183;28;45291;-76
2022/01/25 00:59:05;;;;;;;;;37.25;32.25;;;;;21.47;40.58;102360.41;5081425;28;45582;-76
2022/01/25 01:01:31;;;;;;;;;36.00;32.75;;;;;21.47;40.70;102365.72;5081605;28;48253;-76
2022/01/25 01:03:56;;;;;;;;;36.00;31.50;;;;;21.48;40.19;102362.19;5081753;28;45331;-76
2022/01/25 01:06:22;;;;;;;;;40.25;31.75;;;;;21.48;40.14;102362.19;5081612;28;51575;-76
2022/01/25 01:08:47;;;;;;;;;33.00;29.75;;;;;21.49;40.37;102359.50;5064485;28;45479;-76
2022/01/25 01:11:18;;;;;;;;;39.75;34.00;;;;;21.49;40.29;102366.59;5071090;28;45391;-76
2022/01/25 01:30:07;;;;;;;;;37.00;32.25;;;;;21.47;40.27;102366.63;5077160;28;45364;-76
2022/01/25 01:43:45;;;;;;;;;32.00;28.25;;;;;21.45;40.14;102374.56;5065286;28;45521;-76
2022/01/25 01:48:15;;;;;;;;;35.25;31.25;;;;;21.47;40.13;102387.00;5064037;28;45401;-76
2022/01/25 01:50:41;;;;;;;;;34.75;31.25;;;;;21.44;40.13;102370.16;5064739;28;45459;-76
2022/01/25 01:53:07;;;;;;;;;37.25;33.25;;;;;21.45;40.21;102373.69;5080933;28;45707;-76
2022/01/25 01:55:32;;;;;;;;;36.00;31.50;;;;;21.42;40.70;102369.28;5049257;28;45283;-76
2022/01/25 01:57:58;;;;;;;;;34.75;31.75;;;;;21.43;40.53;102370.19;5034719;28;45257;-77
2022/01/25 02:00:36;;;;;;;;;39.75;32.75;;;;;21.42;40.25;102377.25;5080624;28;45599;-76
2022/01/25 02:03:02;;;;;;;;;37.00;32.50;;;;;21.42;40.23;102381.69;5044090;28;47338;-76
2022/01/25 02:05:28;;;;;;;;;36.50;32.75;;;;;21.42;40.08;102385.25;5057687;28;45379;-76
2022/01/25 02:07:53;;;;;;;;;36.00;33.25;;;;;21.42;40.43;102384.34;5063909;28;45504;-76
2022/01/25 02:10:19;;;;;;;;;44.00;34.00;;;;;21.42;40.42;102379.91;5061691;28;47173;-76
2022/01/25 02:12:48;;;;;;;;;31.75;31.25;;;;;21.42;40.20;102384.34;5060164;28;45368;-76
2022/01/25 02:15:14;;;;;;;;;36.50;30.75;;;;;21.44;40.38;102379.91;5076245;28;45196;-76
2022/01/25 02:23:21;;;;;;;;;33.75;30.25;;;;;21.43;40.46;102381.69;5066215;28;45294;-76
2022/01/25 02:25:48;;;;;;;;;38.00;31.25;;;;;21.44;40.23;102383.44;5063389;27;45280;-76
2022/01/25 02:28:13;;;;;;;;;36.75;31.50;;;;;21.45;40.14;102390.50;5079322;28;45507;-76
2022/01/25 02:30:40;;;;;;;;;34.00;29.00;;;;;21.43;40.10;102383.47;5063131;27;45423;-76
2022/01/25 02:33:05;;;;;;;;;35.75;30.25;;;;;21.43;40.35;102379.03;5045250;28;45990;-76
2022/01/25 02:35:31;;;;;;;;;34.00;30.25;;;;;21.42;40.20;102379.91;5063115;28;45217;-76
2022/01/25 02:37:56;;;;;;;;;34.00;30.50;;;;;21.41;40.42;102372.84;5081211;27;46506;-76
2022/01/25 02:40:21;;;;;;;;;28.50;26.50;;;;;21.43;39.92;102386.13;5079785;28;45842;-76
2022/01/25 02:42:47;;;;;;;;;40.75;31.25;;;;;21.42;40.01;102379.91;5080710;27;54512;-77
2022/01/25 02:45:16;;;;;;;;;37.50;31.75;;;;;21.40;40.60;102379.06;5080285;28;45341;-76
2022/01/25 02:50:25;;;;;;;;;36.50;31.75;;;;;21.39;40.25;102376.44;5080155;28;45402;-76
2022/01/25 02:52:51;;;;;;;;;33.25;31.00;;;;;21.41;40.51;102383.47;5062264;28;56271;-75
2022/01/25 02:55:18;;;;;;;;;29.75;28.50;;;;;21.40;40.79;102373.75;5062402;27;45422;-75
2022/01/25 02:57:44;;;;;;;;;36.25;31.75;;;;;21.40;40.38;102375.53;5079972;28;45333;-74
2022/01/25 03:00:10;;;;;;;;;31.75;29.50;;;;;21.40;40.78;102384.38;5080091;28;45334;-75
2022/01/25 03:02:36;;;;;;;;;39.50;32.75;;;;;21.40;40.67;102384.38;5079369;28;45560;-75
2022/01/25 03:05:01;;;;;;;;;34.25;30.50;;;;;21.40;40.51;102383.50;5059708;28;45288;-75
2022/01/25 03:07:26;;;;;;;;;32.75;30.50;;;;;21.41;40.42;102391.44;5078661;28;45344;-75
2022/01/25 03:09:53;;;;;;;;;30.75;28.75;;;;;21.40;40.23;102381.72;5079356;28;45454;-75
2022/01/25 03:12:29;;;;;;;;;32.00;29.75;;;;;21.40;40.38;102384.38;5062543;28;45709;-75
2022/01/25 03:15:26;;;;;;;;;35.00;30.00;;;;;21.40;40.66;102389.69;5059531;28;45271;-74
2022/01/25 03:17:52;;;;;;;;;31.25;26.50;;;;;21.39;40.08;102379.97;5064612;28;45351;-75
2022/01/25 03:20:22;;;;;;;;;31.75;28.50;;;;;21.40;39.97;102387.03;5059250;28;45332;-75
2022/01/25 03:25:18;;;;;;;;;29.50;27.50;;;;;21.40;40.03;102376.41;5058912;28;45450;-75
2022/01/25 03:27:44;;;;;;;;;32.50;25.25;;;;;21.40;40.39;102372.88;5079783;28;45297;-75
2022/01/25 03:30:10;;;;;;;;;29.75;24.75;;;;;21.41;40.21;102366.66;5078850;28;59369;-75
2022/01/25 03:32:35;;;;;;;;;29.25;27.75;;;;;21.39;40.17;102364.03;5059069;28;46051;-75
2022/01/25 03:35:01;;;;;;;;;27.75;25.50;;;;;21.39;40.17;102358.72;5078220;28;45202;-75
2022/01/25 03:37:26;;;;;;;;;28.50;25.00;;;;;21.40;40.18;102359.59;5062633;28;45259;-75
2022/01/25 03:39:52;;;;;;;;;32.75;30.00;;;;;21.41;39.70;102361.34;5079519;27;45600;-75
2022/01/25 03:42:19;;;;;;;;;29.75;28.00;;;;;21.38;39.69;102351.66;5058818;28;49536;-75
2022/01/25 03:44:44;;;;;;;;;27.25;24.50;;;;;21.39;39.65;102353.41;5058656;28;45361;-75
2022/01/25 03:47:13;;;;;;;;;30.75;29.00;;;;;21.37;39.76;102341.91;5058837;28;45240;-75
2022/01/25 03:49:52;;;;;;;;;28.50;25.25;;;;;21.39;39.95;102339.25;5041806;28;45604;-75
2022/01/25 03:52:34;;;;;;;;;29.00;28.25;;;;;21.36;40.25;102342.78;5058260;28;48094;-75
2022/01/25 03:55:00;;;;;;;;;28.00;27.75;;;;;21.37;40.24;102347.22;5063496;28;45502;-75
2022/01/25 03:57:26;;;;;;;;;28.00;27.50;;;;;21.37;40.44;102348.97;5058669;28;47611;-75
2022/01/25 03:59:51;;;;;;;;;29.75;28.50;;;;;21.37;40.27;102346.31;5052089;28;45169;-75
2022/01/25 04:02:17;;;;;;;;;35.00;31.00;;;;;21.36;40.43;102341.91;5078575;28;47236;-75
2022/01/25 04:04:42;;;;;;;;;29.75;26.75;;;;;21.37;40.05;102352.53;5061957;28;45247;-75
2022/01/25 04:07:10;;;;;;;;;32.75;23.75;;;;;21.36;40.43;102352.53;5061951;28;45448;-75
2022/01/25 04:09:36;;;;;;;;;27.00;23.00;;;;;21.36;40.60;102352.53;5062037;28;45403;-75
2022/01/25 04:12:05;;;;;;;;;26.75;26.75;;;;;21.36;40.74;102348.09;5061776;28;46586;-75
2022/01/25 04:14:31;;;;;;;;;29.50;22.25;;;;;21.33;40.63;102350.78;5078661;28;45447;-75
2022/01/25 04:17:09;;;;;;;;;26.00;25.25;;;;;21.36;40.30;102366.69;5061812;28;45270;-75
2022/01/25 04:19:44;;;;;;;;;24.25;21.25;;;;;21.36;40.00;102368.47;5058339;28;45449;-75
2022/01/25 04:27:23;;;;;;;;;29.00;26.50;;;;;21.35;40.38;102372.91;5058606;28;45488;-75
2022/01/25 04:29:48;;;;;;;;;25.25;24.00;;;;;21.36;40.49;102363.16;5078468;28;45334;-75
2022/01/25 04:32:14;;;;;;;;;26.50;24.50;;;;;21.37;40.11;102356.94;5078189;28;58117;-75
2022/01/25 04:34:45;;;;;;;;;26.00;22.75;;;;;21.36;40.34;102368.47;5044941;28;45518;-75
2022/01/25 04:58:27;;;;;;;;;27.00;26.25;;;;;21.32;40.43;102377.38;5082902;27;45461;-75
2022/01/25 05:00:53;;;;;;;;;23.25;23.00;;;;;21.32;40.18;102372.06;5081655;28;45240;-75
2022/01/25 05:03:25;;;;;;;;;22.50;21.00;;;;;21.31;40.34;102376.50;5064764;27;47747;-77
2022/01/25 05:05:59;;;;;;;;;29.00;27.25;;;;;21.32;40.38;102372.06;5082304;27;46070;-76
2022/01/25 05:11:17;;;;;;;;;24.75;23.25;;;;;21.32;40.45;102377.38;5064682;28;45329;-76
2022/01/25 05:14:32;;;;;;;;;27.50;24.00;;;;;21.33;40.32;102371.16;5054472;28;47974;-76
2022/01/25 05:16:39;;;;;;;;;28.50;22.50;;;;;21.32;40.13;102377.38;5078530;27;45201;-76
2022/01/25 05:19:22;;;;;;;;;21.25;19.50;;;;;21.34;39.98;102384.44;5082794;28;45357;-76
2022/01/25 05:24:34;;;;;;;;;21.25;20.25;;;;;21.35;40.46;102377.34;5067023;28;45286;-76
2022/01/25 05:27:00;;;;;;;;;22.00;21.50;;;;;21.36;40.30;102382.63;5044226;28;46010;-76
2022/01/25 05:29:25;;;;;;;;;21.50;19.00;;;;;21.36;40.23;102379.09;5057683;28;45444;-76
2022/01/25 05:31:50;;;;;;;;;21.00;20.25;;;;;21.35;40.06;102377.34;5046913;28;59370;-76
2022/01/25 05:34:16;;;;;;;;;24.00;21.75;;;;;21.36;39.99;102377.31;5060862;28;45335;-76
2022/01/25 05:36:43;;;;;;;;;25.75;21.25;;;;;21.35;39.94;102378.22;5080554;28;55389;-76
2022/01/25 05:39:15;;;;;;;;;21.75;19.75;;;;;21.37;39.79;102380.84;5064596;27;45341;-76
2022/01/25 05:41:42;;;;;;;;;21.00;20.25;;;;;21.36;39.58;102385.28;5081425;28;45261;-76
2022/01/25 05:46:47;;;;;;;;;22.00;22.00;;;;;21.37;39.94;102378.19;5080940;28;45383;-78
2022/01/25 05:49:12;;;;;;;;;26.00;22.50;;;;;21.38;40.49;102379.97;5068812;28;45343;-77
2022/01/25 05:51:38;;;;;;;;;23.50;22.00;;;;;21.42;41.81;102379.03;5060529;28;45498;-76
2022/01/25 05:54:03;;;;;;;;;22.50;20.75;;;;;21.51;41.48;102383.38;5075789;28;45483;-73
2022/01/25 05:56:29;;;;;;;;;22.50;19.25;;;;;21.61;41.46;102382.38;5082204;27;60974;-78
2022/01/25 05:58:54;;;;;;;;;20.50;18.00;;;;;21.75;41.84;102377.81;5061919;28;56525;-77
2022/01/25 06:01:20;;;;;;;;;23.75;22.00;;;;;21.89;42.58;102381.22;5081047;28;45331;-77
2022/01/25 06:03:45;;;;;;;;;24.25;22.75;;;;;22.01;42.28;102377.53;5046527;28;47637;-76
2022/01/25 06:06:11;;;;;;;;;25.25;22.00;;;;;22.13;42.59;102373.84;5081002;28;45209;-75
2022/01/25 06:08:37;;;;;;;;;24.00;21.75;;;;;22.28;42.43;102373.66;5063865;28;45474;-74
2022/01/25 06:11:02;;;;;;;;;23.25;20.00;;;;;22.44;42.96;102374.34;5080226;28;45517;-74
2022/01/25 06:13:27;;;;;;;;;23.25;19.25;;;;;22.53;42.58;102375.09;5063481;28;48184;-73
2022/01/25 06:15:53;;;;;;;;;23.50;19.75;;;;;22.60;41.74;102377.66;5063422;28;45193;-74
2022/01/25 06:18:18;;;;;;;;;27.00;24.75;;;;;22.62;41.25;102378.50;5079946;28;51538;-73
2022/01/25 06:20:44;;;;;;;;;27.00;24.00;;;;;22.60;40.83;102377.66;5042806;28;58429;-73
2022/01/25 06:23:09;;;;;;;;;29.00;23.25;;;;;22.57;41.04;102376.78;5056980;28;63191;-72
2022/01/25 06:25:34;;;;;;;;;24.25;22.50;;;;;22.54;40.97;102376.84;5079990;28;49146;-74
2022/01/25 06:28:00;;;;;;;;;27.00;23.25;;;;;22.48;41.30;102371.59;5080491;28;45417;-74
2022/01/25 06:30:25;;;;;;;;;24.75;21.75;;;;;22.44;41.32;102385.84;5055814;28;51879;-74
2022/01/25 06:32:51;;;;;;;;;26.25;21.25;;;;;22.39;40.93;102393.00;5059682;28;45424;-75
2022/01/25 06:35:17;;;;;;;;;30.50;21.50;;;;;22.33;41.23;102390.44;5060041;28;45417;-75
2022/01/25 06:37:42;;;;;;;;;24.00;23.00;;;;;22.28;40.88;102386.97;5042984;28;45421;-75
2022/01/25 06:40:08;;;;;;;;;28.25;27.00;;;;;22.24;40.94;102383.47;5025564;28;57517;-75
2022/01/25 06:42:35;;;;;;;;;26.25;24.75;;;;;22.21;40.93;102383.50;5042700;28;45399;-75
2022/01/25 06:45:03;;;;;;;;;25.50;23.50;;;;;22.17;41.44;102386.22;5026912;28;45760;-74
2022/01/25 06:47:29;;;;;;;;;30.50;24.50;;;;;22.12;41.04;102372.97;5043273;28;45298;-75
2022/01/25 06:49:55;;;;;;;;;27.50;25.50;;;;;22.11;41.26;102380.97;5026370;28;45400;-75
2022/01/25 06:52:21;;;;;;;;;33.75;27.75;;;;;22.07;41.03;102369.50;5042852;28;45460;-74
2022/01/25 06:54:46;;;;;;;;;19.00;18.75;;;;;22.04;41.12;102371.28;5042387;28;45399;-74
2022/01/25 06:57:12;;;;;;;;;29.25;26.50;;;;;22.00;41.58;102373.97;5060343;28;45324;-74
2022/01/25 06:59:47;;;;;;;;;29.25;26.75;;;;;21.99;41.14;102368.69;5079741;28;45511;-75
2022/01/25 07:02:15;;;;;;;;;30.00;25.00;;;;;21.96;41.64;102366.03;5061626;28;47013;-74
2022/01/25 07:04:41;;;;;;;;;27.75;23.25;;;;;21.94;41.57;102374.06;5063233;28;47560;-72
2022/01/25 07:07:06;;;;;;;;;31.00;28.25;;;;;21.93;41.58;102377.59;5061263;28;48852;-73
2022/01/25 07:09:32;;;;;;;;;33.75;29.50;;;;;21.90;41.63;102380.31;5079227;28;52806;-73
2022/01/25 07:11:57;;;;;;;;;26.50;24.50;;;;;21.87;41.04;102383.00;5079430;28;45318;-73
2022/01/25 07:14:22;;;;;;;;;29.25;26.75;;;;;21.87;41.40;102387.44;5078799;28;49661;-74
2022/01/25 07:16:48;;;;;;;;;33.75;27.25;;;;;21.84;41.08;102388.34;5079567;28;45927;-74
2022/01/25 07:19:14;;;;;;;;;34.25;30.00;;;;;21.81;40.81;102380.41;5079600;28;45480;-73
2022/01/25 07:21:39;;;;;;;;;30.25;28.50;;;;;21.80;40.81;102383.94;5043802;28;47415;-73
2022/01/25 07:24:05;;;;;;;;;34.25;28.25;;;;;21.78;40.83;102393.72;5045228;28;62398;-73
2022/01/25 07:26:30;;;;;;;;;34.50;28.25;;;;;21.75;40.92;102391.09;5079351;28;45361;-73
2022/01/25 07:28:56;;;;;;;;;29.50;28.75;;;;;21.74;40.68;102389.34;5081345;28;45489;-73
2022/01/25 07:31:21;;;;;;;;;31.50;25.75;;;;;21.71;40.35;102394.69;5079814;28;58885;-73
2022/01/25 07:33:50;;;;;;;;;28.75;25.50;;;;;21.69;40.70;102396.47;5059088;28;45445;-73
2022/01/25 07:36:15;;;;;;;;;35.25;29.00;;;;;21.67;40.67;102401.81;5055273;28;47910;-73
2022/01/25 07:38:40;;;;;;;;;31.00;28.25;;;;;21.66;40.30;102405.38;5061530;28;63608;-73
2022/01/25 07:41:06;;;;;;;;;31.25;29.00;;;;;21.65;39.76;102408.06;5078323;28;61571;-75
2022/01/25 07:43:31;;;;;;;;;32.25;29.75;;;;;21.64;40.23;102400.97;5061152;28;45353;-75
2022/01/25 07:45:59;;;;;;;;;33.00;28.25;;;;;21.60;40.27;102400.13;5060840;28;45219;-76
2022/01/25 07:48:25;;;;;;;;;31.00;27.00;;;;;21.64;40.36;102414.28;5043041;28;45544;-74
2022/01/25 07:50:50;;;;;;;;;35.25;28.50;;;;;21.63;40.27;102413.38;5038053;28;47349;-75
2022/01/25 07:53:15;;;;;;;;;26.50;23.25;;;;;21.62;40.18;102416.91;5041868;28;45961;-75
2022/01/25 07:55:41;;;;;;;;;26.25;23.75;;;;;21.61;40.39;102420.47;5073289;28;45286;-75
2022/01/25 07:58:06;;;;;;;;;34.00;29.00;;;;;21.62;40.36;102424.00;5046945;28;47417;-75
2022/01/25 08:00:32;;;;;;;;;30.25;29.00;;;;;21.61;40.04;102419.59;5073856;28;45373;-75
2022/01/25 08:02:57;;;;;;;;;34.25;28.75;;;;;21.61;40.54;102424.91;5078863;28;45495;-75
2022/01/25 08:05:24;;;;;;;;;30.75;28.75;;;;;21.60;40.19;102417.84;5043262;28;45338;-75
2022/01/25 08:07:49;;;;;;;;;33.25;25.25;;;;;21.59;39.93;102424.03;5067869;27;45574;-75
2022/01/25 08:10:15;;;;;;;;;27.75;23.00;;;;;21.59;40.12;102424.03;5059539;28;48454;-75
2022/01/25 08:12:40;;;;;;;;;29.50;23.00;;;;;21.58;39.78;102424.94;5061223;28;61599;-75
2022/01/25 08:15:06;;;;;;;;;32.50;25.50;;;;;21.58;39.58;102430.25;5079813;27;45223;-74
2022/01/25 08:17:32;;;;;;;;;34.25;27.75;;;;;21.58;39.85;102435.56;5061507;28;45501;-75
2022/01/25 08:19:57;;;;;;;;;29.25;24.00;;;;;21.58;39.85;102438.22;5044594;28;48623;-74
2022/01/25 08:22:24;;;;;;;;;27.25;24.00;;;;;21.57;39.85;102447.09;5061744;28;45334;-74
2022/01/25 08:24:50;;;;;;;;;27.25;25.50;;;;;21.55;39.54;102441.81;5061629;27;45318;-74
2022/01/25 08:27:19;;;;;;;;;25.75;25.00;;;;;21.56;39.96;102440.03;5080980;28;45402;-74
2022/01/25 08:29:45;;;;;;;;;30.00;24.75;;;;;21.55;39.67;102439.16;5065254;28;47263;-74
2022/01/25 08:32:11;;;;;;;;;30.50;25.00;;;;;21.56;39.85;102445.34;5044887;28;45825;-75
2022/01/25 08:34:36;;;;;;;;;25.50;22.25;;;;;21.56;39.86;102442.69;5077084;28;45180;-77
2022/01/25 08:37:02;;;;;;;;;30.25;27.25;;;;;21.57;41.31;102436.47;5081790;28;50397;-76
2022/01/25 08:39:28;;;;;;;;;34.25;30.75;;;;;21.56;40.89;102440.03;5064073;28;46675;-74
2022/01/25 08:41:56;;;;;;;;;29.50;25.25;;;;;21.57;40.54;102444.44;5064977;28;45198;-74
2022/01/25 08:44:22;;;;;;;;;29.00;24.75;;;;;21.57;40.60;102447.97;5081740;28;45290;-73
2022/01/25 08:46:47;;;;;;;;;30.75;27.25;;;;;21.58;40.13;102440.88;5064656;28;45446;-76
2022/01/25 08:49:13;;;;;;;;;29.25;27.00;;;;;21.58;40.41;102433.78;5064295;28;57994;-79
2022/01/25 08:51:38;;;;;;;;;30.50;24.00;;;;;21.59;40.06;102440.88;5060848;28;55184;-76
2022/01/25 08:54:04;;;;;;;;;25.50;21.00;;;;;21.60;40.14;102433.78;5063367;28;46609;-76
2022/01/25 08:56:29;;;;;;;;;29.75;24.00;;;;;21.60;39.84;102437.31;5044486;28;45426;-76
2022/01/25 08:58:55;;;;;;;;;32.00;25.25;;;;;21.61;40.10;102433.75;5061904;28;46947;-77
2022/01/25 09:01:20;;;;;;;;;31.25;26.25;;;;;21.61;39.91;102433.75;5064619;28;45425;-75
2022/01/25 09:03:46;;;;;;;;;26.50;24.25;;;;;21.61;40.14;102438.19;5064391;28;45402;-75
2022/01/25 09:06:11;;;;;;;;;30.75;28.75;;;;;21.63;39.74;102441.72;5061304;28;45240;-75
2022/01/25 09:08:36;;;;;;;;;28.25;27.00;;;;;21.61;39.63;102444.38;5075600;28;45649;-75
2022/01/25 09:11:04;;;;;;;;;25.25;25.25;;;;;21.62;39.59;102447.91;5044263;28;45741;-74
2022/01/25 09:13:30;;;;;;;;;25.75;23.25;;;;;21.62;39.85;102447.91;5076892;28;45290;-76
2022/01/25 09:15:56;;;;;;;;;25.50;23.25;;;;;21.62;39.51;102448.78;5064437;28;45433;-77
2022/01/25 09:18:21;;;;;;;;;29.00;24.50;;;;;21.61;39.94;102452.34;5047343;28;47324;-77
2022/01/25 09:20:47;;;;;;;;;26.50;25.75;;;;;21.61;39.41;102449.69;5060553;28;45382;-75
2022/01/25 09:23:15;;;;;;;;;21.75;18.00;;;;;21.61;39.55;102448.81;5076514;28;45830;-75
2022/01/25 09:25:41;;;;;;;;;33.50;28.50;;;;;21.62;39.37;102447.91;5060451;28;45417;-78
2022/01/25 09:28:08;;;;;;;;;27.50;22.25;;;;;21.61;39.02;102448.81;5076486;28;45332;-77
2022/01/25 09:30:37;;;;;;;;;24.75;22.25;;;;;21.61;39.45;102448.81;5064775;27;45167;-77
2022/01/25 09:33:03;;;;;;;;;24.50;21.25;;;;;21.60;39.28;102457.69;5064844;28;45435;-75
2022/01/25 09:35:28;;;;;;;;;30.00;24.75;;;;;21.59;39.68;102456.81;5064109;28;45493;-76
2022/01/25 09:37:53;;;;;;;;;21.50;17.00;;;;;21.58;39.35;102464.81;5063167;28;46092;-77
2022/01/25 09:40:20;;;;;;;;;29.00;26.25;;;;;21.57;39.56;102461.25;5063094;27;45406;-77
2022/01/25 09:42:50;;;;;;;;;21.75;19.50;;;;;21.57;39.64;102468.34;5046820;28;45270;-77
2022/01/25 09:45:16;;;;;;;;;26.00;22.00;;;;;21.57;39.06;102473.66;5064409;28;45391;-77
2022/01/25 09:47:41;;;;;;;;;23.50;21.25;;;;;21.55;39.40;102464.84;5079981;28;48278;-77
2022/01/25 09:50:12;;;;;;;;;28.75;24.75;;;;;21.55;39.07;102475.47;5043392;28;45245;-76
2022/01/25 09:52:39;;;;;;;;;25.75;22.50;;;;;21.52;39.39;102464.84;5047806;28;45331;-77
2022/01/25 09:55:09;;;;;;;;;27.25;23.50;;;;;21.53;39.54;102469.25;5063615;27;45281;-75
2022/01/25 09:57:35;;;;;;;;;29.25;23.25;;;;;21.52;39.17;102472.81;5060846;28;47103;-77
2022/01/25 10:00:00;;;;;;;;;20.75;20.75;;;;;21.52;39.61;102478.13;5081575;27;45409;-77
2022/01/25 10:05:38;;;;;;;;;23.75;20.00;;;;;21.50;39.34;102474.59;5081760;28;45427;-78
2022/01/25 10:08:06;;;;;;;;;35.25;25.00;;;;;21.50;39.04;102485.25;5063790;28;46162;-79
2022/01/25 10:10:33;;;;;;;;;26.25;22.75;;;;;21.49;38.95;102476.38;5081111;27;45434;-80
2022/01/25 10:13:11;;;;;;;;;26.25;22.75;;;;;21.49;38.96;102471.06;5043582;28;45235;-80
2022/01/25 10:15:59;;;;;;;;;25.25;22.50;;;;;21.49;38.88;102473.72;5079729;28;45538;-80
2022/01/25 10:18:54;;;;;;;;;23.25;21.75;;;;;21.47;39.42;102466.69;5079961;28;47308;-80
2022/01/25 10:21:33;;;;;;;;;28.50;24.00;;;;;21.47;39.07;102472.00;5097081;27;45440;-78
2022/01/25 10:24:07;;;;;;;;;23.25;21.00;;;;;21.50;39.00;102479.94;5081632;27;45325;-78
2022/01/25 10:26:54;;;;;;;;;28.50;22.50;;;;;21.50;39.04;102483.47;5079683;27;45507;-79
2022/01/25 10:29:23;;;;;;;;;28.75;23.75;;;;;21.49;39.02;102480.81;5081509;27;46435;-78
2022/01/25 10:32:21;;;;;;;;;23.00;20.75;;;;;21.47;39.07;102477.31;5046173;28;45798;-78
2022/01/25 10:34:49;;;;;;;;;30.00;25.75;;;;;21.50;39.11;102485.25;5076131;28;45424;-77
2022/01/25 10:37:23;;;;;;;;;23.25;21.00;;;;;21.49;39.07;102479.03;5046918;28;45578;-76
2022/01/25 10:39:51;;;;;;;;;31.75;27.00;;;;;21.48;39.03;102474.63;5096304;27;47834;-78
2022/01/25 10:42:24;;;;;;;;;29.25;24.75;;;;;21.50;39.11;102493.22;5079769;28;45508;-78
2022/01/25 10:44:50;;;;;;;;;28.50;22.75;;;;;21.50;39.07;102493.22;5079899;28;45279;-77
2022/01/25 10:47:37;;;;;;;;;20.75;19.00;;;;;21.50;38.90;102487.91;5080943;27;45503;-77
2022/01/25 10:50:17;;;;;;;;;25.50;25.00;;;;;21.49;39.04;102484.34;5058210;28;47690;-78
2022/01/25 10:52:42;;;;;;;;;23.50;21.00;;;;;21.49;38.97;102489.66;5077221;28;45333;-77
2022/01/25 10:55:08;;;;;;;;;28.25;22.25;;;;;21.48;38.95;102490.56;5079825;28;45207;-77
2022/01/25 10:57:34;;;;;;;;;23.00;20.50;;;;;21.48;38.86;102492.34;5078253;27;45165;-75
2022/01/25 11:00:01;;;;;;;;;25.75;23.00;;;;;21.48;38.77;102484.38;5079925;28;45323;-78
2022/01/25 11:02:26;;;;;;;;;23.00;21.25;;;;;21.48;39.06;102479.06;5062619;28;45925;-79
2022/01/25 11:05:03;;;;;;;;;23.50;21.50;;;;;21.47;38.81;102479.97;5081115;27;45435;-79
2022/01/25 11:07:36;;;;;;;;;23.25;21.50;;;;;21.48;38.83;102479.06;5064204;28;45459;-80
2022/01/25 11:10:02;;;;;;;;;24.50;20.50;;;;;21.45;38.56;102478.16;5079092;28;45648;-79
2022/01/25 11:12:35;;;;;;;;;20.25;19.00;;;;;21.45;38.70;102478.16;5079352;28;45441;-80
2022/01/25 11:15:01;;;;;;;;;23.50;20.00;;;;;21.43;38.69;102472.00;5063313;27;45361;-80
2022/01/25 11:17:27;;;;;;;;;16.75;16.00;;;;;21.44;39.04;102470.22;5080450;27;52297;-79
2022/01/25 11:19:53;;;;;;;;;25.75;20.75;;;;;21.44;38.92;102472.88;5078998;28;46313;-79
2022/01/25 11:22:20;;;;;;;;;20.25;19.25;;;;;21.41;38.92;102460.50;5079446;28;45431;-80
2022/01/25 11:24:50;;;;;;;;;18.00;15.25;;;;;21.43;38.89;102477.31;5076296;28;45398;-80
2022/01/25 11:27:18;;;;;;;;;26.50;21.25;;;;;21.42;38.96;102470.25;5030562;28;45469;-80
2022/01/25 11:29:43;;;;;;;;;25.50;19.00;;;;;21.42;38.64;102472.91;5057631;27;47924;-80
2022/01/25 11:32:13;;;;;;;;;27.25;20.25;;;;;21.40;38.33;102466.72;5062328;28;45461;-80
2022/01/25 11:34:39;;;;;;;;;29.50;24.00;;;;;21.42;38.58;102464.94;5044966;28;45286;-80
2022/01/25 11:37:15;;;;;;;;;;;;;;;;;;;;;
2022/01/25 11:39:45;;;;;;;;;19.25;18.25;;;;;21.37;38.34;102466.75;5061187;28;74737;-80
2022/01/25 11:42:23;;;;;;;;;30.00;23.00;;;;;21.40;38.21;102465.84;5079281;28;45311;-80
2022/01/25 11:45:00;;;;;;;;;28.25;25.75;;;;;21.44;38.34;102479.06;5063156;28;45343;-80
2022/01/25 11:47:33;;;;;;;;;19.25;18.25;;;;;21.40;38.38;102466.72;5063314;28;45308;-80
2022/01/25 11:50:09;;;;;;;;;22.75;17.50;;;;;21.43;38.72;102469.34;5080181;27;45523;-80
2022/01/25 11:52:35;;;;;;;;;20.25;19.00;;;;;21.41;38.68;102468.47;5061143;28;45210;-80
2022/01/25 11:55:20;;;;;;;;;23.50;21.50;;;;;21.38;38.38;102460.56;5061328;28;45359;-80
2022/01/25 11:57:55;;;;;;;;;23.25;20.25;;;;;21.41;38.73;102472.91;5079858;27;45401;-80
2022/01/25 12:00:45;;;;;;;;;24.00;22.00;;;;;21.42;38.58;102466.69;5079049;28;47335;-80
2022/01/25 12:03:59;;;;;;;;;21.75;21.00;;;;;21.41;38.46;102462.28;5086155;28;45417;-79
2022/01/25 12:06:31;;;;;;;;;22.25;21.00;;;;;21.41;38.69;102463.16;5074643;28;45429;-75
2022/01/25 12:09:08;;;;;;;;;24.50;19.00;;;;;21.42;38.76;102453.41;5052519;28;45517;-76
2022/01/25 12:11:50;;;;;;;;;24.25;20.75;;;;;21.42;38.56;102456.06;5081467;28;47144;-76
2022/01/25 12:14:28;;;;;;;;;21.50;20.25;;;;;21.37;38.67;102457.88;5056841;28;45833;-76
2022/01/25 12:17:02;;;;;;;;;24.50;20.25;;;;;21.41;38.79;102455.19;5069156;28;45377;-76
2022/01/25 12:19:32;;;;;;;;;20.50;17.50;;;;;21.41;38.90;102449.88;5081879;28;45644;-76
2022/01/25 12:22:19;;;;;;;;;20.25;20.00;;;;;21.37;38.91;102448.16;5063513;28;48197;-76
2022/01/25 12:24:48;;;;;;;;;22.50;19.50;;;;;21.42;38.80;102450.75;5052940;28;45706;-75
2022/01/25 12:29:44;;;;;;;;;27.25;21.25;;;;;21.38;38.73;102438.41;5063404;28;45650;-75
2022/01/25 12:32:35;;;;;;;;;22.50;21.25;;;;;21.39;38.63;102438.41;5047957;28;48608;-76
2022/01/25 12:35:19;;;;;;;;;21.00;20.50;;;;;21.39;38.51;102434.88;5083733;28;45312;-73
2022/01/25 12:37:45;;;;;;;;;28.00;22.00;;;;;21.39;38.62;102433.09;5066064;28;45465;-74
2022/01/25 12:40:32;;;;;;;;;28.00;25.00;;;;;21.38;39.00;102433.97;5081436;28;45547;-76
2022/01/25 12:43:03;;;;;;;;;5.50;2.75;;;;;21.39;38.60;102430.44;5065926;28;46096;-76
2022/01/25 12:45:31;;;;;;;;;24.00;20.50;;;;;21.37;38.63;102426.91;5081329;28;45583;-76
2022/01/25 12:48:04;;;;;;;;;22.75;20.50;;;;;21.38;38.49;102422.47;5083210;28;45453;-76
2022/01/25 12:50:38;;;;;;;;;24.25;21.00;;;;;21.36;38.95;102430.44;5068259;28;45951;-76
2022/01/25 12:53:05;;;;;;;;;25.75;21.00;;;;;21.36;38.81;102416.28;5068527;28;46999;-76
2022/01/25 12:55:35;;;;;;;;;24.75;22.00;;;;;21.35;38.57;102418.06;5051102;28;45367;-75
2022/01/25 12:58:01;;;;;;;;;25.00;18.75;;;;;21.37;38.85;102424.25;5064782;28;45220;-75
2022/01/25 13:00:35;;;;;;;;;23.75;22.75;;;;;21.36;38.43;102417.16;5079056;28;45568;-78
2022/01/25 13:03:14;;;;;;;;;29.00;24.75;;;;;21.36;38.72;102414.50;5101832;27;48026;-78
2022/01/25 13:05:45;;;;;;;;;31.75;26.00;;;;;21.38;38.45;102410.06;5067752;28;45510;-78